Oxnard, California
Current Conditions -  °F | °C
As of 1:51 AM on Saturday 22 Nov 2014 (Local Time) from KOXR Reporting Station
Clear Clear  
Wind Chill: 58°   Ceiling: Unl
Heat Index: 58°   Visibility: 10mi
Dew Point: 40°   Wind: 9mph
Humidity: 51%   Direction: 30°NNE
Pressure: 30.06"   Gusts: NA
Location:  34.2°N, 119.18°W
Report Text: KOXR 220951Z AUTO 03008KT 10SM CLR 14/04 A3006 RMK AO2 SLP177 T01440044
Loading
Personal Weather Stations






























Interactive Weather Map New forecast layout! Learn more

10-Day Weather Forecast

Advertisements
Track Severe Weather on mobile